createdAt,value
2019-06-01T00:00:57.136Z,17.90
2019-06-01T00:06:01.490Z,17.90
2019-06-01T00:11:06.440Z,17.90
2019-06-01T00:16:30.139Z,17.80
2019-06-01T00:21:54.641Z,17.70
2019-06-01T00:26:58.992Z,17.70
2019-06-01T00:32:03.337Z,17.70
2019-06-01T00:37:07.700Z,17.60
2019-06-01T00:42:12.082Z,17.60
2019-06-01T00:47:16.441Z,17.60
2019-06-01T00:52:20.796Z,17.60
2019-06-01T00:57:25.168Z,17.50
2019-06-01T01:02:29.533Z,17.50
2019-06-01T01:07:33.885Z,17.50
2019-06-01T01:12:39.960Z,17.40
2019-06-01T01:17:45.709Z,17.40
2019-06-01T01:22:50.258Z,17.30
2019-06-01T01:27:54.867Z,17.20
2019-06-01T01:32:59.569Z,17.20
2019-06-01T01:38:04.299Z,17.20
2019-06-01T01:43:08.668Z,17.10
2019-06-01T01:48:13.040Z,17.10
2019-06-01T01:53:17.413Z,17.10
2019-06-01T01:58:21.755Z,17.10
2019-06-01T02:03:26.097Z,17.10
2019-06-01T02:08:30.483Z,17.10
2019-06-01T02:13:34.839Z,17.10
2019-06-01T02:18:39.201Z,17.10
2019-06-01T02:23:43.557Z,17.10
2019-06-01T02:28:48.060Z,17.00
2019-06-01T02:33:53.645Z,17.00
2019-06-01T02:38:58.650Z,17.00
2019-06-01T02:44:04.339Z,17.00
2019-06-01T02:49:09.325Z,17.00
2019-06-01T02:54:13.700Z,16.90
2019-06-01T02:59:18.059Z,17.00
2019-06-01T03:04:23.082Z,16.90
2019-06-01T03:09:29.101Z,16.90
2019-06-01T03:14:35.390Z,16.90
2019-06-01T03:19:43.170Z,16.80
2019-06-01T03:24:50.101Z,16.80
2019-06-01T03:29:57.438Z,16.70
2019-06-01T03:35:21.186Z,16.60
2019-06-01T03:40:25.602Z,16.60
2019-06-01T03:45:29.957Z,16.60
2019-06-01T03:50:34.311Z,16.60
2019-06-01T03:55:38.678Z,16.50
2019-06-01T04:00:43.039Z,16.50
2019-06-01T04:05:47.410Z,16.50
2019-06-01T04:10:51.764Z,16.40
2019-06-01T04:15:56.106Z,16.40
2019-06-01T04:21:02.162Z,16.40
2019-06-01T04:26:08.025Z,16.40
2019-06-01T04:31:12.848Z,16.30
2019-06-01T04:36:17.323Z,16.40
2019-06-01T04:41:21.655Z,16.40
2019-06-01T04:46:26.003Z,16.40
2019-06-01T04:51:30.670Z,16.40
2019-06-01T04:56:35.005Z,16.40
2019-06-01T05:01:39.346Z,16.50
2019-06-01T05:06:44.183Z,16.50
2019-06-01T05:11:48.512Z,16.50
2019-06-01T05:16:52.876Z,16.60
2019-06-01T05:21:57.220Z,16.60
2019-06-01T05:27:01.572Z,16.70
2019-06-01T05:32:05.982Z,16.70
2019-06-01T05:37:10.802Z,16.80
2019-06-01T05:42:16.843Z,16.80
2019-06-01T05:47:22.452Z,16.90
2019-06-01T05:52:26.947Z,16.90
2019-06-01T05:57:31.307Z,17.10
2019-06-01T06:02:35.721Z,17.20
2019-06-01T06:07:40.084Z,17.30
2019-06-01T06:12:44.426Z,17.40
2019-06-01T06:17:48.797Z,17.60
2019-06-01T06:22:53.140Z,17.90
2019-06-01T06:27:57.487Z,18.50
2019-06-01T06:33:02.049Z,18.90
2019-06-01T06:38:06.569Z,19.20
2019-06-01T06:43:19.003Z,19.30
2019-06-01T06:48:17.145Z,19.40
2019-06-01T06:53:29.859Z,19.50
2019-06-01T06:58:27.650Z,19.50
2019-06-01T07:03:31.995Z,19.50
2019-06-01T07:08:36.370Z,19.60
2019-06-01T07:13:40.722Z,19.70
2019-06-01T07:18:45.070Z,19.80
2019-06-01T07:23:49.447Z,19.90
2019-06-01T07:28:53.872Z,20.00
2019-06-01T07:33:58.223Z,20.10
2019-06-01T07:39:02.743Z,20.20
2019-06-01T07:44:07.042Z,20.30
2019-06-01T07:49:11.395Z,20.40
2019-06-01T07:54:16.131Z,20.50
2019-06-01T07:59:21.519Z,20.60
2019-06-01T08:04:28.615Z,20.70
2019-06-01T08:09:33.004Z,20.80
2019-06-01T08:14:37.361Z,21.00
2019-06-01T08:19:41.789Z,21.20
2019-06-01T08:24:46.190Z,21.30
2019-06-01T08:29:50.532Z,21.50
2019-06-01T08:35:07.818Z,21.60
2019-06-01T08:40:04.968Z,21.80
2019-06-01T08:45:10.438Z,22.00
2019-06-01T08:50:16.427Z,22.10
2019-06-01T08:55:20.839Z,22.40
2019-06-01T09:00:26.337Z,22.50
2019-06-01T09:05:31.535Z,22.60
2019-06-01T09:10:36.021Z,22.80
2019-06-01T09:15:43.445Z,22.90
2019-06-01T09:20:47.798Z,22.90
2019-06-01T09:25:52.162Z,23.00
2019-06-01T09:30:58.545Z,23.10
2019-06-01T09:36:02.638Z,23.20
2019-06-01T09:41:06.992Z,23.30
2019-06-01T09:46:11.384Z,23.30
2019-06-01T09:51:15.711Z,23.50
2019-06-01T09:56:20.054Z,23.70
2019-06-01T10:01:24.439Z,24.00
2019-06-01T10:06:28.796Z,24.20
2019-06-01T10:11:34.295Z,24.40
2019-06-01T10:16:39.084Z,24.70
2019-06-01T10:21:43.578Z,24.80
2019-06-01T10:26:47.966Z,25.00
2019-06-01T10:31:52.300Z,25.10
2019-06-01T10:36:56.659Z,25.30
2019-06-01T10:42:01.039Z,25.50
2019-06-01T10:47:05.746Z,25.60
2019-06-01T10:52:10.089Z,25.80
2019-06-01T10:57:14.416Z,25.80
2019-06-01T11:02:18.769Z,25.80
2019-06-01T11:07:23.116Z,25.90
2019-06-01T11:12:27.481Z,25.90
2019-06-01T11:17:32.799Z,25.90
2019-06-01T11:22:37.555Z,25.80
2019-06-01T11:27:42.041Z,25.60
2019-06-01T11:32:46.350Z,25.50
2019-06-01T11:37:50.689Z,25.40
2019-06-01T11:42:55.056Z,25.30
2019-06-01T11:47:59.392Z,25.20
2019-06-01T11:53:03.754Z,25.20
2019-06-01T11:58:08.234Z,25.30
2019-06-01T12:03:12.669Z,25.40
2019-06-01T12:08:17.224Z,25.50
2019-06-01T12:13:21.612Z,25.60
2019-06-01T12:18:25.967Z,25.70
2019-06-01T12:23:30.324Z,25.70
2019-06-01T12:28:34.665Z,25.80
2019-06-01T12:33:39.882Z,25.80
2019-06-01T12:38:54.899Z,25.90
2019-06-01T12:44:09.430Z,25.90
2019-06-01T12:49:17.546Z,25.90
2019-06-01T12:54:21.979Z,25.90
2019-06-01T12:59:26.341Z,25.80
2019-06-01T13:04:30.713Z,25.90
2019-06-01T13:09:35.053Z,25.90
2019-06-01T13:14:39.457Z,25.90
2019-06-01T13:19:45.460Z,25.90
2019-06-01T13:24:50.032Z,25.90
2019-06-01T13:29:54.361Z,26.00
2019-06-01T13:34:58.715Z,26.10
2019-06-01T13:40:04.083Z,26.00
2019-06-01T13:45:08.956Z,26.10
2019-06-01T13:50:13.580Z,26.20
2019-06-01T13:55:17.994Z,26.20
2019-06-01T14:00:30.293Z,26.20
2019-06-01T14:05:28.473Z,26.30
2019-06-01T14:10:32.825Z,26.20
2019-06-01T14:15:37.182Z,26.20
2019-06-01T14:20:41.533Z,25.90
2019-06-01T14:25:45.982Z,25.70
2019-06-01T14:30:50.367Z,25.70
2019-06-01T14:35:54.710Z,25.70
2019-06-01T14:40:59.059Z,25.60
2019-06-01T14:46:03.409Z,25.60
2019-06-01T14:51:07.743Z,25.70
2019-06-01T14:56:12.137Z,25.90
2019-06-01T15:01:31.361Z,25.90
2019-06-01T15:06:22.621Z,25.90
2019-06-01T15:11:26.957Z,26.00
2019-06-01T15:16:31.327Z,26.10
2019-06-01T15:21:36.664Z,26.20
2019-06-01T15:26:40.998Z,26.20
2019-06-01T15:31:45.373Z,26.20
2019-06-01T15:36:49.723Z,26.10
2019-06-01T15:41:55.207Z,26.10
2019-06-01T15:47:02.078Z,26.10
2019-06-01T15:52:06.524Z,26.10
2019-06-01T15:57:10.847Z,26.20
2019-06-01T16:02:15.205Z,26.20
2019-06-01T16:07:19.664Z,26.20
2019-06-01T16:12:24.083Z,26.20
2019-06-01T16:17:28.427Z,26.20
2019-06-01T16:22:32.795Z,26.20
2019-06-01T16:27:37.148Z,26.10
2019-06-01T16:32:41.497Z,26.10
2019-06-01T16:37:45.835Z,26.00
2019-06-01T16:42:50.194Z,26.00
2019-06-01T16:47:55.438Z,26.00
2019-06-01T16:53:00.233Z,26.00
2019-06-01T16:58:06.301Z,25.90
2019-06-01T17:03:11.423Z,25.90
2019-06-01T17:08:15.882Z,25.90
2019-06-01T17:13:20.309Z,25.80
2019-06-01T17:18:24.658Z,25.80
2019-06-01T17:23:32.711Z,25.70
2019-06-01T17:28:35.093Z,25.70
2019-06-01T17:33:39.445Z,25.70
2019-06-01T17:38:43.806Z,25.60
2019-06-01T17:43:48.189Z,25.60
2019-06-01T17:48:52.543Z,25.60
2019-06-01T17:53:56.891Z,25.50
2019-06-01T17:59:01.348Z,25.50
2019-06-01T18:04:05.954Z,25.40
2019-06-01T18:09:10.542Z,25.40
2019-06-01T18:14:15.269Z,25.40
2019-06-01T18:19:19.610Z,25.30
2019-06-01T18:24:23.969Z,25.30
2019-06-01T18:29:28.331Z,25.20
2019-06-01T18:34:32.678Z,25.20
2019-06-01T18:39:37.049Z,25.10
2019-06-01T18:44:41.537Z,25.10
2019-06-01T18:49:46.681Z,25.00
2019-06-01T18:54:52.126Z,25.00
2019-06-01T18:59:56.474Z,24.90
2019-06-01T19:05:00.829Z,24.90
2019-06-01T19:10:09.455Z,24.80
2019-06-01T19:15:28.090Z,24.80
2019-06-01T19:20:22.520Z,24.70
2019-06-01T19:25:27.096Z,24.60
2019-06-01T19:30:38.663Z,24.50
2019-06-01T19:35:43.003Z,24.50
2019-06-01T19:40:47.341Z,24.40
2019-06-01T19:45:52.706Z,24.30
2019-06-01T19:50:57.199Z,24.30
2019-06-01T19:56:01.536Z,24.20
2019-06-01T20:01:06.235Z,24.20
2019-06-01T20:06:11.071Z,24.10
2019-06-01T20:11:15.567Z,24.00
2019-06-01T20:16:21.077Z,23.90
2019-06-01T20:21:25.660Z,23.90
2019-06-01T20:26:39.657Z,23.80
2019-06-01T20:31:36.159Z,23.80
2019-06-01T20:36:40.504Z,23.70
2019-06-01T20:42:20.316Z,23.60
2019-06-01T20:47:10.767Z,23.50
2019-06-01T20:52:15.109Z,23.40
2019-06-01T20:57:19.680Z,23.30
2019-06-01T21:02:24.212Z,23.20
2019-06-01T21:07:28.609Z,23.20
2019-06-01T21:12:44.962Z,23.10
2019-06-01T21:17:39.106Z,23.00
2019-06-01T21:22:43.441Z,22.90
2019-06-01T21:27:47.799Z,22.90
2019-06-01T21:32:52.230Z,22.80
2019-06-01T21:37:56.585Z,22.80
2019-06-01T21:43:22.517Z,22.70
2019-06-01T21:48:07.142Z,22.60
2019-06-01T21:53:11.512Z,22.60
2019-06-01T21:58:16.467Z,22.50
2019-06-01T22:03:21.219Z,22.50
2019-06-01T22:08:25.543Z,22.40
2019-06-01T22:13:29.901Z,22.30
2019-06-01T22:18:34.251Z,22.30
2019-06-01T22:23:38.592Z,22.20
2019-06-01T22:28:43.477Z,22.20
2019-06-01T22:33:47.848Z,22.10
2019-06-01T22:38:52.226Z,22.10
2019-06-01T22:43:56.587Z,22.00
2019-06-01T22:49:00.945Z,21.90
2019-06-01T22:54:05.450Z,21.90
2019-06-01T22:59:09.923Z,21.80
2019-06-01T23:04:14.265Z,21.80
2019-06-01T23:09:18.601Z,21.80
2019-06-01T23:14:23.316Z,21.70
2019-06-01T23:19:28.094Z,21.70
2019-06-01T23:24:51.948Z,21.60
2019-06-01T23:29:56.295Z,21.60
2019-06-01T23:35:00.649Z,21.50
2019-06-01T23:40:09.110Z,21.50
2019-06-01T23:45:13.784Z,21.40
2019-06-01T23:50:18.145Z,21.40
2019-06-01T23:55:23.503Z,21.40
